Mount Crested Butte, Colorado
Current Conditions -  °F | °C
As of 2:53 PM on Thursday 23 Oct 2014 (Local Time) from KASE Reporting Station
Clear Clear  
Wind Chill: 62°   Ceiling: Unl
Heat Index: 62°   Visibility: 10mi
Dew Point: 32°   Wind: 7mph
Humidity: 32%   Direction: 10°N
Pressure: 30.29"   Gusts: NA
Location:  38.8977°N, 106.967°W
Report Text: KASE 232053Z 01006KT 10SM CLR 17/00 A3029 RMK AO2 SLP178 T01670000 56016
Loading
Personal Weather Stations






























Interactive Weather Map
Tropical Storm Tracking
New forecast layout! Learn more

10-Day Weather Forecast

Advertisements
Track Severe Weather on mobile